Time;durP1;ratioP1;P1;durP2;ratioP2;P2;SDS_P1;SDS_P2;PMS_P1;PMS_P2;Temp;Humidity;BMP_temperature;BMP_pressure;BME280_temperature;BME280_humidity;BME280_pressure;Samples;Min_cycle;Max_cycle;Signal;HPM_P1;HPM_P2
2022/11/21 00:00:09;;;;;;;590.72;534.17;;;;;;;-0.39;70.13;100084.94;691444;28;46369;-64
2022/11/21 00:00:33;;;;;;;579.28;523.00;;;;;;;-0.40;70.25;100079.75;692054;28;48321;-63
2022/11/21 00:00:56;;;;;;;566.05;510.13;;;;;;;-0.38;70.15;100078.69;694856;28;27276;-64
2022/11/21 00:01:20;;;;;;;587.67;531.42;;;;;;;-0.40;70.29;100077.94;693552;28;69321;-64
2022/11/21 00:01:42;;;;;;;578.00;521.80;;;;;;;-0.38;70.19;100080.47;689761;28;92093;-63
2022/11/21 00:02:03;;;;;;;587.85;531.30;;;;;;;-0.40;70.57;100077.94;691329;28;46338;-64
2022/11/21 00:02:24;;;;;;;583.90;527.47;;;;;;;-0.38;70.39;100075.16;692151;28;23458;-64
2022/11/21 00:02:47;;;;;;;597.53;540.85;;;;;;;-0.38;70.33;100073.38;692118;28;21484;-64
2022/11/21 00:03:08;;;;;;;605.08;548.28;;;;;;;-0.37;70.34;100068.91;691268;28;45371;-64
2022/11/21 00:03:30;;;;;;;613.90;556.88;;;;;;;-0.39;70.24;100066.38;691917;28;46342;-64
2022/11/21 00:03:52;;;;;;;602.47;545.67;;;;;;;-0.35;70.27;100068.78;694717;28;21573;-63
2022/11/21 00:04:13;;;;;;;600.95;544.28;;;;;;;-0.37;70.53;100066.25;694947;28;26422;-64
2022/11/21 00:04:35;;;;;;;577.78;521.45;;;;;;;-0.33;70.47;100073.00;694533;28;23486;-64
2022/11/21 00:04:56;;;;;;;590.08;533.20;;;;;;;-0.33;70.39;100072.13;693131;28;21291;-63
2022/11/21 00:05:18;;;;;;;573.75;517.30;;;;;;;-0.33;70.57;100070.34;694849;28;21469;-64
2022/11/21 00:05:41;;;;;;;566.65;510.67;;;;;;;-0.32;70.55;100071.19;694863;28;23499;-64
2022/11/21 00:06:04;;;;;;;581.90;525.83;;;;;;;-0.32;70.46;100066.72;694142;28;50192;-65
2022/11/21 00:06:25;;;;;;;593.38;537.00;;;;;;;-0.29;70.66;100068.28;695239;28;45316;-63
2022/11/21 00:06:47;;;;;;;586.95;530.45;;;;;;;-0.29;70.53;100062.97;696010;28;22399;-64
2022/11/21 00:07:09;;;;;;;601.33;544.38;;;;;;;-0.29;70.48;100063.81;693204;28;21469;-64
2022/11/21 00:07:30;;;;;;;598.65;542.00;;;;;;;-0.28;70.50;100064.63;694270;28;22312;-64
2022/11/21 00:07:52;;;;;;;601.65;544.90;;;;;;;-0.31;70.61;100063.09;695126;28;21503;-63
2022/11/21 00:08:16;;;;;;;580.15;523.90;;;;;;;-0.27;70.63;100061.03;695246;28;21230;-64
2022/11/21 00:08:38;;;;;;;577.00;520.78;;;;;;;-0.26;70.53;100062.72;692564;28;46437;-64
2022/11/21 00:08:59;;;;;;;591.53;534.90;;;;;;;-0.26;70.51;100065.38;695285;28;21280;-63
2022/11/21 00:09:21;;;;;;;586.10;529.58;;;;;;;-0.26;70.53;100060.06;695126;28;21485;-64
2022/11/21 00:09:43;;;;;;;581.22;524.85;;;;;;;-0.24;70.38;100060.78;695062;28;22069;-64
2022/11/21 00:10:05;;;;;;;588.55;531.95;;;;;;;-0.27;70.59;100056.56;694986;28;26687;-65
2022/11/21 00:10:26;;;;;;;587.50;531.10;;;;;;;-0.23;70.46;100060.66;695158;28;23351;-64
2022/11/21 00:10:51;;;;;;;589.60;533.20;;;;;;;-0.23;70.20;100063.31;694837;28;23057;-65
2022/11/21 00:11:13;;;;;;;583.10;526.67;;;;;;;-0.26;70.28;100052.94;694638;28;26049;-64
2022/11/21 00:11:34;;;;;;;581.05;524.75;;;;;;;-0.24;70.29;100058.13;694748;28;26071;-64
2022/11/21 00:12:00;;;;;;;586.33;529.80;;;;;;;-0.25;70.00;100059.94;695477;28;5264;-64
2022/11/21 00:12:21;;;;;;;583.92;527.47;;;;;;;-0.26;70.19;100060.06;694989;28;22395;-63
2022/11/21 00:12:43;;;;;;;576.88;520.58;;;;;;;-0.26;70.29;100054.78;695101;28;21574;-64
2022/11/21 00:13:05;;;;;;;576.75;520.55;;;;;;;-0.33;70.20;100049.13;695141;28;23779;-64
2022/11/21 00:13:27;;;;;;;593.72;537.10;;;;;;;-0.26;70.23;100060.91;695008;28;22388;-64
2022/11/21 00:13:49;;;;;;;584.67;528.28;;;;;;;-0.27;70.43;100059.22;693807;28;44454;-64
2022/11/21 00:14:10;;;;;;;588.97;532.30;;;;;;;-0.26;70.41;100054.78;694938;28;22202;-66
2022/11/21 00:14:32;;;;;;;573.50;517.33;;;;;;;-0.29;70.43;100060.31;695015;28;22429;-65
2022/11/21 00:14:54;;;;;;;566.33;510.23;;;;;;;-0.25;70.41;100059.09;694822;28;26104;-64
2022/11/21 00:15:15;;;;;;;585.35;528.90;;;;;;;-0.27;70.46;100058.38;695017;28;20813;-64
2022/11/21 00:15:37;;;;;;;572.00;516.08;;;;;;;-0.24;70.55;100060.78;692313;28;21134;-64
2022/11/21 00:16:02;;;;;;;585.88;529.35;;;;;;;-0.24;70.56;100061.63;692087;28;26331;-64
2022/11/21 00:16:23;;;;;;;566.63;510.60;;;;;;;-0.24;70.44;100055.47;692149;28;25847;-64
2022/11/21 00:16:45;;;;;;;578.53;522.20;;;;;;;-0.23;70.41;100059.81;693317;28;22405;-64
2022/11/21 00:17:07;;;;;;;573.50;517.28;;;;;;;-0.24;70.42;100058.97;695122;28;23372;-64
2022/11/21 00:17:28;;;;;;;575.80;519.67;;;;;;;-0.23;70.49;100054.53;695136;28;22286;-64
2022/11/21 00:17:51;;;;;;;575.65;519.55;;;;;;;-0.25;70.44;100052.00;695003;28;23466;-64
2022/11/21 00:18:12;;;;;;;564.20;508.05;;;;;;;-0.24;70.52;100053.66;694716;28;26868;-63
2022/11/21 00:18:34;;;;;;;565.00;509.02;;;;;;;-0.24;70.42;100050.16;695202;28;21525;-64
2022/11/21 00:18:56;;;;;;;588.28;531.70;;;;;;;-0.24;70.35;100051.00;693862;28;42117;-64
2022/11/21 00:19:17;;;;;;;577.33;520.92;;;;;;;-0.25;70.42;100040.50;694779;28;21478;-63
2022/11/21 00:19:39;;;;;;;560.65;504.73;;;;;;;-0.23;70.29;100049.22;694899;28;22331;-64
2022/11/21 00:20:00;;;;;;;571.03;515.03;;;;;;;-0.23;70.87;100047.41;694331;28;22026;-64
2022/11/21 00:20:22;;;;;;;585.50;529.08;;;;;;;-0.22;70.47;100040.25;695370;28;21498;-64
2022/11/21 00:20:44;;;;;;;593.75;537.08;;;;;;;-0.22;70.34;100048.22;695489;28;22383;-64
2022/11/21 00:21:06;;;;;;;593.25;536.60;;;;;;;-0.21;70.39;100039.31;695368;28;25539;-64
2022/11/21 00:21:27;;;;;;;586.13;529.67;;;;;;;-0.21;70.36;100042.78;695425;28;22423;-64
2022/11/21 00:21:48;;;;;;;582.50;526.08;;;;;;;-0.20;70.36;100048.97;695250;28;22141;-63
2022/11/21 00:22:11;;;;;;;586.78;530.50;;;;;;;-0.19;70.52;100046.19;695647;28;21542;-64
2022/11/21 00:22:32;;;;;;;604.17;547.33;;;;;;;-0.21;70.28;100045.44;695583;28;26813;-64
2022/11/21 00:22:54;;;;;;;590.63;533.95;;;;;;;-0.20;70.33;100039.19;695579;28;23411;-64
2022/11/21 00:23:15;;;;;;;570.90;514.70;;;;;;;-0.19;70.37;100045.31;692842;28;21456;-64
2022/11/21 00:23:39;;;;;;;581.38;525.00;;;;;;;-0.20;70.38;100046.31;692460;28;21369;-63
2022/11/21 00:24:00;;;;;;;581.17;524.83;;;;;;;-0.20;70.47;100036.53;692295;28;44675;-64
2022/11/21 00:24:21;;;;;;;582.85;526.65;;;;;;;-0.20;70.41;100041.00;692891;28;21472;-64
2022/11/21 00:24:43;;;;;;;582.35;526.20;;;;;;;-0.19;70.32;100037.34;693931;28;22322;-65
2022/11/21 00:25:05;;;;;;;588.38;531.85;;;;;;;-0.19;70.45;100034.72;695419;28;22449;-65
2022/11/21 00:25:27;;;;;;;591.88;535.28;;;;;;;-0.20;70.40;100041.84;695571;28;22319;-64
2022/11/21 00:25:48;;;;;;;589.72;533.20;;;;;;;-0.20;70.37;100035.69;695275;28;26552;-64
2022/11/21 00:26:12;;;;;;;596.40;539.72;;;;;;;-0.20;70.34;100041.84;695629;28;22158;-65
2022/11/21 00:26:33;;;;;;;579.40;523.10;;;;;;;-0.21;70.32;100037.47;695200;28;26530;-65
2022/11/21 00:26:57;;;;;;;562.95;507.05;;;;;;;-0.19;70.34;100040.00;694756;28;23406;-64
2022/11/21 00:27:18;;;;;;;579.63;523.20;;;;;;;-0.21;70.53;100034.84;695406;28;21454;-64
2022/11/21 00:27:39;;;;;;;581.67;525.38;;;;;;;-0.21;70.45;100034.84;692875;28;23433;-64
2022/11/21 00:28:01;;;;;;;578.90;522.80;;;;;;;-0.19;70.48;100038.22;693106;28;3604;-64
2022/11/21 00:28:23;;;;;;;574.58;518.45;;;;;;;-0.19;70.56;100034.72;692730;28;20970;-64
2022/11/21 00:28:45;;;;;;;569.13;513.08;;;;;;;-0.19;70.63;100030.25;692967;28;4500;-64
2022/11/21 00:29:06;;;;;;;552.33;496.77;;;;;;;-0.18;70.77;100039.06;689722;28;22228;-64
2022/11/21 00:29:28;;;;;;;567.83;511.98;;;;;;;-0.18;70.71;100031.09;690628;28;22531;-64
2022/11/21 00:29:50;;;;;;;586.38;530.00;;;;;;;-0.16;70.65;100030.97;692306;28;22291;-64
2022/11/21 00:30:14;;;;;;;573.47;517.35;;;;;;;-0.19;70.71;100032.06;692486;28;26871;-64
2022/11/21 00:30:35;;;;;;;603.13;546.35;;;;;;;-0.19;70.84;100024.94;692512;28;25494;-64
2022/11/21 00:30:56;;;;;;;593.22;536.67;;;;;;;-0.14;70.81;100031.69;692716;28;22329;-63
2022/11/21 00:31:20;;;;;;;572.55;516.50;;;;;;;-0.14;70.80;100032.53;695183;28;21269;-64
2022/11/21 00:31:41;;;;;;;560.97;505.13;;;;;;;-0.13;70.78;100028.91;691684;28;46295;-63
2022/11/21 00:32:03;;;;;;;556.17;500.55;;;;;;;-0.12;70.87;100027.09;691899;28;22405;-63
2022/11/21 00:32:24;;;;;;;558.65;502.88;;;;;;;-0.12;70.87;100037.72;692649;28;21422;-64
2022/11/21 00:32:46;;;;;;;591.08;534.47;;;;;;;-0.11;70.79;100037.59;692155;28;22436;-63
2022/11/21 00:33:08;;;;;;;579.75;523.25;;;;;;;-0.16;70.85;100026.50;689870;28;22324;-64
2022/11/21 00:33:29;;;;;;;558.72;502.98;;;;;;;-0.09;70.82;100026.84;692259;28;21527;-63
2022/11/21 00:33:53;;;;;;;562.60;506.70;;;;;;;-0.09;70.91;100038.31;694941;28;26866;-64
2022/11/21 00:34:15;;;;;;;568.83;512.85;;;;;;;-0.08;70.83;100039.13;695356;28;22396;-63
2022/11/21 00:34:38;;;;;;;570.78;514.63;;;;;;;-0.07;70.85;100035.53;696122;28;896;-64
2022/11/21 00:34:59;;;;;;;585.40;528.88;;;;;;;-0.06;70.83;100032.75;694343;28;22359;-64
2022/11/21 00:35:21;;;;;;;576.45;520.17;;;;;;;-0.05;70.87;100030.94;694823;28;44414;-65
2022/11/21 00:35:42;;;;;;;569.78;513.72;;;;;;;-0.06;70.87;100030.09;695451;28;22260;-63
2022/11/21 00:36:08;;;;;;;570.20;514.10;;;;;;;-0.07;70.90;100024.91;695617;28;21547;-64
2022/11/21 00:36:32;;;;;;;590.88;534.42;;;;;;;-0.04;70.89;100032.63;695418;28;26559;-64
2022/11/21 00:36:53;;;;;;;584.35;527.95;;;;;;;-0.05;70.84;100030.94;695360;28;26454;-64
2022/11/21 00:37:14;;;;;;;579.55;523.33;;;;;;;-0.04;70.95;100024.66;695583;28;22253;-64
2022/11/21 00:37:37;;;;;;;580.72;524.45;;;;;;;-0.02;70.83;100025.38;692001;28;23475;-63
2022/11/21 00:37:59;;;;;;;587.80;531.38;;;;;;;-0.02;70.95;100028.88;691915;28;46347;-64
2022/11/21 00:38:20;;;;;;;573.70;517.70;;;;;;;-0.02;70.93;100030.69;692373;28;23213;-63
2022/11/21 00:38:43;;;;;;;569.67;513.70;;;;;;;-0.03;70.88;100029.84;692296;28;20427;-63
2022/11/21 00:39:05;;;;;;;567.47;511.58;;;;;;;-0.02;70.78;100028.88;692504;28;26327;-64
2022/11/21 00:39:27;;;;;;;578.83;522.55;;;;;;;-0.02;70.82;100022.72;693225;28;22328;-64
2022/11/21 00:39:48;;;;;;;582.80;526.53;;;;;;;-0.02;70.63;100031.53;695304;28;23539;-64
2022/11/21 00:40:10;;;;;;;574.88;518.85;;;;;;;-0.01;70.67;100027.91;695406;28;21531;-64
2022/11/21 00:40:31;;;;;;;570.33;514.30;;;;;;;-0.02;70.74;100022.72;695153;28;21462;-63
2022/11/21 00:40:54;;;;;;;568.70;512.58;;;;;;;0.00;70.54;100026.09;695077;28;23143;-63
2022/11/21 00:41:15;;;;;;;554.92;499.20;;;;;;;-0.02;70.54;100028.88;695642;28;22451;-64
2022/11/21 00:41:36;;;;;;;544.90;489.40;;;;;;;-0.07;70.56;100004.50;695789;28;22171;-63
2022/11/21 00:41:58;;;;;;;572.90;516.53;;;;;;;-0.02;70.50;100025.38;696063;28;24405;-63
2022/11/21 00:42:20;;;;;;;566.92;510.88;;;;;;;-0.02;70.63;100028.88;696270;28;23561;-64
2022/11/21 00:42:41;;;;;;;567.67;511.50;;;;;;;-0.02;70.51;100026.22;695440;28;23481;-63
2022/11/21 00:43:02;;;;;;;559.58;503.85;;;;;;;-0.02;70.53;100028.03;695628;28;21532;-63
2022/11/21 00:43:24;;;;;;;573.97;517.92;;;;;;;-0.03;70.50;100024.53;695538;28;22492;-63
2022/11/21 00:43:46;;;;;;;564.25;508.25;;;;;;;-0.02;70.26;100025.38;694945;28;23383;-63
2022/11/21 00:44:07;;;;;;;569.38;513.28;;;;;;;-0.03;70.48;100018.38;695613;28;22360;-63
2022/11/21 00:44:28;;;;;;;570.13;514.10;;;;;;;-0.05;70.40;100025.63;695450;28;22409;-64
2022/11/21 00:44:50;;;;;;;571.92;515.75;;;;;;;-0.04;70.46;100022.84;695830;28;21423;-64
2022/11/21 00:45:11;;;;;;;576.05;519.67;;;;;;;-0.06;70.39;100019.47;695054;28;22370;-64
2022/11/21 00:45:35;;;;;;;562.95;507.20;;;;;;;-0.04;70.42;100025.50;695367;28;23493;-63
2022/11/21 00:45:58;;;;;;;554.85;499.00;;;;;;;-0.05;70.45;100029.13;692019;28;26577;-63
2022/11/21 00:46:19;;;;;;;568.70;512.80;;;;;;;-0.04;70.39;100024.66;691877;28;44147;-65
2022/11/21 00:46:40;;;;;;;583.90;527.63;;;;;;;-0.04;70.54;100024.66;694177;28;21467;-64
2022/11/21 00:47:03;;;;;;;592.55;536.00;;;;;;;-0.04;70.53;100025.50;695469;28;21533;-64
2022/11/21 00:47:24;;;;;;;591.33;534.88;;;;;;;-0.05;70.49;100015.88;693810;28;20982;-64
2022/11/21 00:47:45;;;;;;;593.33;536.95;;;;;;;-0.02;70.61;100020.91;692299;28;23482;-64
2022/11/21 00:48:06;;;;;;;584.05;527.80;;;;;;;-0.02;70.53;100022.72;692617;28;22366;-64
2022/11/21 00:48:29;;;;;;;566.30;510.50;;;;;;;-0.02;70.63;100022.72;692999;28;23487;-64
2022/11/21 00:48:51;;;;;;;571.35;515.28;;;;;;;-0.02;70.52;100025.38;697438;28;25733;-64
2022/11/21 00:49:12;;;;;;;570.80;514.70;;;;;;;-0.01;70.61;100019.94;695572;28;21359;-64
2022/11/21 00:49:33;;;;;;;574.47;518.38;;;;;;;-0.01;70.55;100022.59;696149;28;22471;-64
2022/11/21 00:49:55;;;;;;;581.35;525.05;;;;;;;0.01;70.59;100021.63;698299;28;22464;-63
2022/11/21 00:50:17;;;;;;;566.88;510.98;;;;;;;0.00;70.57;100012.84;697621;28;46290;-63
2022/11/21 00:50:38;;;;;;;539.20;484.00;;;;;;;-0.01;70.50;100019.94;695940;28;45250;-63
2022/11/21 00:51:02;;;;;;;550.78;495.27;;;;;;;-0.01;70.27;100011.13;695545;28;22386;-64
2022/11/21 00:51:24;;;;;;;604.95;548.08;;;;;;;-0.01;70.51;100019.94;695383;28;26658;-64
2022/11/21 00:51:46;;;;;;;573.60;517.50;;;;;;;0.01;70.58;100026.94;695373;28;27288;-64
2022/11/21 00:52:07;;;;;;;574.47;518.47;;;;;;;-0.01;70.94;100017.28;695435;28;23477;-63
2022/11/21 00:52:28;;;;;;;555.28;499.65;;;;;;;0.02;70.54;100013.53;695300;28;23497;-64
2022/11/21 00:52:55;;;;;;;563.17;507.30;;;;;;;0.01;70.56;100022.47;695135;28;21436;-64
2022/11/21 00:53:16;;;;;;;555.58;499.70;;;;;;;0.02;70.71;100013.53;691277;28;136392;-64
2022/11/21 00:53:37;;;;;;;574.72;518.65;;;;;;;0.02;70.64;100013.53;694163;28;45250;-64
2022/11/21 00:54:00;;;;;;;594.08;537.53;;;;;;;0.04;70.63;100018.72;695182;28;22396;-63
2022/11/21 00:54:22;;;;;;;574.72;518.70;;;;;;;0.03;70.66;100015.19;693527;28;69410;-63
2022/11/21 00:54:43;;;;;;;567.92;512.03;;;;;;;0.04;70.75;100010.75;694436;28;46409;-64
2022/11/21 00:55:05;;;;;;;586.92;530.30;;;;;;;0.03;70.62;100011.72;695021;28;23493;-64
2022/11/21 00:55:26;;;;;;;591.03;534.35;;;;;;;0.05;70.64;100012.41;694453;28;45275;-64
2022/11/21 00:55:48;;;;;;;588.47;532.08;;;;;;;0.06;70.66;100016.78;695393;28;23416;-64
2022/11/21 00:56:10;;;;;;;601.58;544.95;;;;;;;0.07;70.75;100014.00;694846;28;46319;-64
2022/11/21 00:56:31;;;;;;;590.65;534.22;;;;;;;0.08;70.75;100018.34;694755;28;45405;-64
2022/11/21 00:56:52;;;;;;;593.70;537.35;;;;;;;0.01;70.73;99997.72;695554;28;22246;-63
2022/11/21 00:57:16;;;;;;;611.83;554.88;;;;;;;0.07;70.75;100010.50;695287;28;25484;-64
2022/11/21 00:57:41;;;;;;;596.58;540.08;;;;;;;0.08;70.93;100015.69;695428;28;22395;-64
2022/11/21 00:58:03;;;;;;;616.72;559.58;;;;;;;0.09;71.00;100013.88;694654;28;49558;-64
2022/11/21 00:58:24;;;;;;;602.50;545.88;;;;;;;0.08;71.04;100007.72;694727;28;46291;-64
2022/11/21 00:58:45;;;;;;;594.15;537.65;;;;;;;0.11;71.03;100011.91;694330;28;46292;-64
2022/11/21 00:59:07;;;;;;;600.05;543.40;;;;;;;0.11;71.25;100006.59;695346;28;22228;-64
2022/11/21 00:59:28;;;;;;;606.97;550.35;;;;;;;0.11;71.03;100015.44;692779;28;23476;-64
2022/11/21 00:59:50;;;;;;;617.95;560.88;;;;;;;0.12;70.95;100016.25;692592;28;23420;-63
2022/11/21 01:00:13;;;;;;;593.72;537.17;;;;;;;0.12;71.06;100017.09;689867;28;22465;-64
2022/11/21 01:00:34;;;;;;;595.83;539.28;;;;;;;0.11;71.10;100006.59;688272;28;69082;-64
2022/11/21 01:01:03;;;;;;;594.55;537.95;;;;;;;0.13;71.14;100012.66;689838;28;22391;-63
2022/11/21 01:01:25;;;;;;;580.97;524.72;;;;;;;0.13;71.02;100013.47;689647;28;26969;-64
2022/11/21 01:01:47;;;;;;;578.92;522.85;;;;;;;0.14;70.99;100015.19;686870;28;23408;-64
2022/11/21 01:02:09;;;;;;;596.58;540.08;;;;;;;0.13;70.95;100007.34;688789;28;23436;-63
2022/11/21 01:02:31;;;;;;;594.38;537.78;;;;;;;0.14;70.89;100007.22;689625;28;44367;-64
2022/11/21 01:02:58;;;;;;;609.95;553.15;;;;;;;0.14;70.93;100007.22;692891;28;13503;-64
2022/11/21 01:03:19;;;;;;;612.65;555.85;;;;;;;0.15;70.92;100010.69;687434;28;90231;-63
2022/11/21 01:03:41;;;;;;;603.13;546.45;;;;;;;0.15;71.03;100006.22;687843;28;23419;-63
2022/11/21 01:04:02;;;;;;;601.20;544.47;;;;;;;0.17;70.83;100004.31;689811;28;22313;-64
2022/11/21 01:04:24;;;;;;;594.42;537.83;;;;;;;0.17;70.91;100009.59;689738;28;22326;-64
2022/11/21 01:04:46;;;;;;;600.47;543.95;;;;;;;0.17;70.67;100006.97;689767;28;22333;-64
2022/11/21 01:05:08;;;;;;;607.22;550.42;;;;;;;0.18;70.59;100007.78;690249;28;22476;-64
2022/11/21 01:05:31;;;;;;;596.15;539.55;;;;;;;0.19;70.79;100004.16;691655;28;46257;-64
2022/11/21 01:05:52;;;;;;;582.30;525.97;;;;;;;0.18;70.70;100002.47;693985;28;25755;-65
2022/11/21 01:06:15;;;;;;;580.22;523.90;;;;;;;0.19;70.79;100006.81;695569;28;23488;-65
2022/11/21 01:06:37;;;;;;;599.55;543.00;;;;;;;0.18;70.72;100007.78;695326;28;27235;-64
2022/11/21 01:06:58;;;;;;;604.78;548.15;;;;;;;0.18;70.54;100005.97;694770;28;46330;-64
2022/11/21 01:07:19;;;;;;;619.30;562.30;;;;;;;0.19;70.76;100006.81;695373;28;22389;-64
2022/11/21 01:07:40;;;;;;;608.60;551.80;;;;;;;0.20;70.68;100007.66;695428;28;22612;-64
2022/11/21 01:08:03;;;;;;;618.40;561.40;;;;;;;0.20;70.72;100010.31;695621;28;22407;-65
2022/11/21 01:08:24;;;;;;;602.78;546.15;;;;;;;0.20;70.74;100005.84;695587;28;23378;-65
2022/11/21 01:08:45;;;;;;;598.88;542.20;;;;;;;0.21;70.54;100004.88;694171;28;22257;-65
2022/11/21 01:09:08;;;;;;;592.45;536.05;;;;;;;0.21;70.51;100007.53;695354;28;23480;-64
2022/11/21 01:09:30;;;;;;;591.75;535.35;;;;;;;0.22;70.61;100006.56;692510;28;23526;-64
2022/11/21 01:09:52;;;;;;;607.35;550.63;;;;;;;0.23;70.64;100004.75;692474;28;21464;-65
2022/11/21 01:10:13;;;;;;;608.42;551.70;;;;;;;0.21;70.65;100004.88;692474;28;22471;-64
2022/11/21 01:10:35;;;;;;;595.25;538.80;;;;;;;0.22;70.57;100009.22;692492;28;23470;-64
2022/11/21 01:10:56;;;;;;;600.97;544.40;;;;;;;0.19;70.49;99996.22;692637;28;23316;-64
2022/11/21 01:11:20;;;;;;;622.08;565.17;;;;;;;0.22;70.63;100005.72;693056;28;22467;-64
2022/11/21 01:11:41;;;;;;;589.38;533.05;;;;;;;0.22;70.48;100000.41;694498;28;44417;-64
2022/11/21 01:12:03;;;;;;;605.08;548.33;;;;;;;0.22;70.46;100008.38;695717;28;22334;-64
2022/11/21 01:12:24;;;;;;;601.25;544.63;;;;;;;0.19;70.43;99996.22;695426;28;23367;-64
2022/11/21 01:12:45;;;;;;;607.13;550.33;;;;;;;0.22;70.35;100006.56;695363;28;22447;-64
2022/11/21 01:13:07;;;;;;;603.97;547.35;;;;;;;0.21;70.57;100004.88;695492;28;22513;-64
2022/11/21 01:13:29;;;;;;;623.53;566.42;;;;;;;0.21;70.52;100006.69;694656;28;44405;-65
2022/11/21 01:13:52;;;;;;;608.20;551.33;;;;;;;0.20;70.45;100008.50;694896;28;23309;-65
2022/11/21 01:14:13;;;;;;;599.33;542.75;;;;;;;0.21;70.45;100009.34;691153;28;70128;-64
2022/11/21 01:14:36;;;;;;;583.70;527.38;;;;;;;0.21;70.27;100007.53;695167;28;23438;-65
2022/11/21 01:14:57;;;;;;;594.63;537.97;;;;;;;0.21;70.38;100007.53;695270;28;22332;-64
2022/11/21 01:15:19;;;;;;;600.95;544.38;;;;;;;0.21;70.34;100004.03;696212;28;1706;-64
2022/11/21 01:15:40;;;;;;;598.05;541.67;;;;;;;0.21;70.41;100007.53;692296;28;25823;-64
2022/11/21 01:16:03;;;;;;;591.97;535.70;;;;;;;0.19;70.62;100009.47;692548;28;21459;-64
2022/11/21 01:16:27;;;;;;;583.35;527.22;;;;;;;0.23;70.45;100012.72;690802;28;69384;-64
2022/11/21 01:16:48;;;;;;;595.22;538.75;;;;;;;0.22;70.36;100006.56;687496;28;88306;-64
2022/11/21 01:17:09;;;;;;;579.17;523.15;;;;;;;0.22;70.52;100008.38;689701;28;22252;-64
2022/11/21 01:17:34;;;;;;;577.40;521.38;;;;;;;0.24;70.38;100009.09;691653;28;1162;-64
2022/11/21 01:17:56;;;;;;;599.90;543.15;;;;;;;0.24;70.36;100012.59;692104;28;26934;-65
2022/11/21 01:18:18;;;;;;;590.53;533.60;;;;;;;0.25;70.37;100010.75;692110;28;27288;-64
2022/11/21 01:18:39;;;;;;;586.50;530.17;;;;;;;0.21;70.32;99999.56;693905;28;22559;-64
2022/11/21 01:19:02;;;;;;;588.03;531.63;;;;;;;0.24;70.52;100009.09;692929;28;23561;-65
2022/11/21 01:19:26;;;;;;;591.88;535.42;;;;;;;0.24;70.31;100004.63;694216;28;23352;-64
2022/11/21 01:19:47;;;;;;;606.00;549.22;;;;;;;0.24;70.34;100003.78;692010;28;26907;-64
2022/11/21 01:20:09;;;;;;;601.83;545.28;;;;;;;0.25;70.37;100005.44;693128;28;908;-65
2022/11/21 01:20:31;;;;;;;602.97;546.42;;;;;;;0.24;70.48;99996.66;692454;28;22404;-65
2022/11/21 01:20:53;;;;;;;601.97;545.53;;;;;;;0.23;70.45;100002.94;690897;28;22988;-64
2022/11/21 01:21:16;;;;;;;599.90;543.30;;;;;;;0.26;70.40;100001.84;687806;28;69367;-64
2022/11/21 01:21:38;;;;;;;598.13;541.53;;;;;;;0.26;70.23;100002.66;687944;28;69357;-63
2022/11/21 01:21:59;;;;;;;591.85;535.42;;;;;;;0.23;70.70;99988.81;689619;28;22314;-64
2022/11/21 01:22:22;;;;;;;585.38;529.00;;;;;;;0.24;70.06;100001.97;689275;28;21612;-64
2022/11/21 01:22:43;;;;;;;586.15;529.78;;;;;;;0.27;70.20;100003.53;687846;28;26170;-64
2022/11/21 01:23:04;;;;;;;596.08;539.53;;;;;;;0.26;70.17;100001.84;689579;28;22263;-65
2022/11/21 01:23:27;;;;;;;611.85;555.00;;;;;;;0.24;70.23;99995.81;690746;28;885;-65
2022/11/21 01:23:49;;;;;;;597.80;541.35;;;;;;;0.23;70.18;99996.78;689381;28;22370;-65
2022/11/21 01:24:13;;;;;;;586.75;530.45;;;;;;;0.21;70.02;100001.38;689800;28;22394;-65
2022/11/21 01:24:34;;;;;;;584.65;528.42;;;;;;;0.21;70.11;100001.38;689461;28;69452;-65
2022/11/21 01:24:55;;;;;;;568.88;513.05;;;;;;;0.21;70.21;99999.56;695214;28;21624;-64
2022/11/21 01:25:16;;;;;;;574.80;518.83;;;;;;;0.21;70.13;99999.56;694979;28;23369;-64
2022/11/21 01:25:38;;;;;;;596.42;539.95;;;;;;;0.19;70.26;100001.50;692718;28;22403;-65
2022/11/21 01:26:03;;;;;;;606.67;549.90;;;;;;;0.15;70.26;99995.59;692571;28;23123;-65
2022/11/21 01:26:27;;;;;;;601.65;544.95;;;;;;;0.17;70.30;100001.66;693757;28;45128;-64
2022/11/21 01:26:49;;;;;;;597.88;541.38;;;;;;;0.17;70.21;99996.34;695312;28;26487;-64
2022/11/21 01:27:11;;;;;;;601.15;544.55;;;;;;;0.16;70.35;100004.44;695444;28;22343;-65
2022/11/21 01:27:36;;;;;;;607.08;550.47;;;;;;;0.17;70.37;99998.13;695461;28;22310;-65
2022/11/21 01:27:58;;;;;;;605.03;548.33;;;;;;;0.16;70.32;100004.44;694383;28;45029;-65
2022/11/21 01:28:20;;;;;;;608.08;551.38;;;;;;;0.12;70.40;99995.84;695236;28;25992;-65
2022/11/21 01:28:41;;;;;;;606.30;549.58;;;;;;;0.16;70.13;100004.44;695069;28;22239;-64
2022/11/21 01:29:03;;;;;;;603.42;546.78;;;;;;;0.14;70.34;100003.69;695495;28;21601;-65
2022/11/21 01:29:26;;;;;;;617.42;560.47;;;;;;;0.12;70.40;100001.16;695472;28;21510;-64
2022/11/21 01:29:47;;;;;;;603.38;546.85;;;;;;;0.12;70.46;100003.00;692651;28;21403;-65
2022/11/21 01:30:10;;;;;;;599.42;542.92;;;;;;;0.12;70.35;99998.50;692782;28;23565;-65
2022/11/21 01:30:31;;;;;;;603.22;546.33;;;;;;;0.12;70.47;99995.03;691226;28;69309;-65
2022/11/21 01:30:53;;;;;;;597.17;540.65;;;;;;;0.11;70.54;100006.59;695505;28;22401;-65
2022/11/21 01:31:17;;;;;;;599.28;542.75;;;;;;;0.11;70.39;100001.28;691928;28;22362;-65
2022/11/21 01:31:38;;;;;;;595.17;538.80;;;;;;;0.11;70.50;100007.47;692403;28;26595;-65
2022/11/21 01:31:59;;;;;;;590.97;534.67;;;;;;;0.11;70.49;100002.16;692579;28;22381;-65
2022/11/21 01:32:22;;;;;;;595.05;538.67;;;;;;;0.10;70.47;99999.63;689727;28;22224;-64
2022/11/21 01:32:47;;;;;;;605.72;548.97;;;;;;;0.10;70.41;99994.31;688110;28;69411;-65
2022/11/21 01:33:08;;;;;;;627.25;570.08;;;;;;;0.09;70.50;99998.75;687446;28;92192;-63
2022/11/21 01:33:29;;;;;;;615.65;558.78;;;;;;;0.09;70.43;100003.25;689915;28;21380;-64
2022/11/21 01:33:53;;;;;;;602.25;545.65;;;;;;;0.04;70.62;99997.47;688530;28;44392;-63
2022/11/21 01:34:14;;;;;;;600.58;544.15;;;;;;;0.08;70.42;100010.38;691167;28;26296;-64
2022/11/21 01:34:35;;;;;;;602.95;546.42;;;;;;;0.06;70.50;99991.06;694861;28;23439;-64
2022/11/21 01:34:57;;;;;;;604.40;547.60;;;;;;;0.05;70.54;99996.50;692174;28;22879;-64
2022/11/21 01:35:19;;;;;;;600.30;543.58;;;;;;;0.07;70.52;99994.56;692511;28;23452;-64
2022/11/21 01:35:40;;;;;;;577.35;521.22;;;;;;;0.07;70.64;99994.56;692289;28;27304;-64
2022/11/21 01:36:06;;;;;;;595.22;538.72;;;;;;;0.04;70.62;99992.16;692399;28;21511;-64
2022/11/21 01:36:28;;;;;;;595.28;538.75;;;;;;;0.07;70.62;99995.41;692244;28;25827;-64
2022/11/21 01:36:50;;;;;;;601.85;545.03;;;;;;;0.07;70.50;99994.56;692881;28;46381;-64
2022/11/21 01:37:12;;;;;;;599.30;542.72;;;;;;;0.08;70.61;99997.09;695413;28;21063;-65
2022/11/21 01:37:33;;;;;;;609.35;552.55;;;;;;;0.07;70.50;99991.91;695387;28;21449;-65
2022/11/21 01:37:54;;;;;;;608.42;551.67;;;;;;;0.05;70.47;99992.03;695463;28;22365;-65
2022/11/21 01:38:16;;;;;;;592.58;536.22;;;;;;;0.07;70.56;99987.44;695497;28;22396;-65
2022/11/21 01:38:37;;;;;;;595.50;539.03;;;;;;;0.08;70.57;99990.94;694099;28;44392;-65
2022/11/21 01:39:01;;;;;;;592.80;536.45;;;;;;;0.08;70.76;99990.94;695551;28;21369;-65
2022/11/21 01:39:24;;;;;;;607.00;550.38;;;;;;;0.07;70.60;99987.44;695187;28;27030;-65
2022/11/21 01:39:45;;;;;;;607.17;550.40;;;;;;;0.08;70.73;99993.56;695949;28;4769;-65